Fort Cobb, OK (73038)

4:04 AM CST on February 25, 2017 (GMT -0600)
Peck's country | | Change Station

Elev 1255 ft 35.10 °N, 98.32 °W | Updated 4 minutes ago

Clear
Clear
27.2 °F
Feels Like 27 °F
N
2.0
Wind Variable Wind from NNW
Gusts 6.0 mph

Today
High -- | Low -- °F
--% Chance of Precip.
Yesterday
High -- | Low -- °F
Precip. -- in
Pressure 30.21 in
Visibility -9999.0 miles
Clouds Clear
Windchill 27 °F
Dew Point 18 °F
Humidity 69%
Rainfall 0.00 in
Snow Depth Not available.
7:07 AM 6:26 PM
Waning Crescent, 2% visible
METAR KCHK 250955Z AUTO 36008KT CLR M02/M05 A3021 RMK AO2 PWINO
Pressure 30.21 in
Visibility -9999.0 miles
Clouds Clear
Windchill 27 °F
Dew Point 18 °F
Humidity 69%
Rainfall 0.00 in
Snow Depth Not available.
7:07 AM 6:26 PM
Waning Crescent, 2% visible
METAR KCHK 250955Z AUTO 36008KT CLR M02/M05 A3021 RMK AO2 PWINO

Get Your Daily Forecast Email!

Thanks for signing up!

Be on the lookout for a verification email in your inbox.

You'll start receiving the daily forecast at 8 AM.

×

10-Day Weather Forecast

Almanac

Astronomy

Feb. 25, 2017 Rise Set
Actual Time
Civil Twilight
Nautical Twilight
Astronomical Twilight
Moon
Length of Visible Light
Length of Day
Tomorrow will be .
, % of the Moon is Illuminated

Today's Extremes

State Highs State Lows

Community

WunderPhotos

Upload Photos

1,962,540 photos uploaded!

WunderBlog® & News

Nearby

Air Quality

  Air Quality AQ Index Pollutant
Not available.

Snow Depth

Station Depth Elevation

Earthquake Activity

City Distance Mag. Time & Date
Minimum magnitude displayed is 2.5.

Coastal Water Temperatures

Place Temperature

Stations

Nearby Weather Stations

Station Location Temp. Windchill Dew Point Humidity Wind Precip. Elev Updated Type
                   

Watches & Warnings

There are currently no watches in effect.